Time;durP1;ratioP1;P1;durP2;ratioP2;P2;SDS_P1;SDS_P2;PMS_P1;PMS_P2;Temp;Humidity;BMP_temperature;BMP_pressure;BME280_temperature;BME280_humidity;BME280_pressure;Samples;Min_cycle;Max_cycle;Signal;HPM_P1;HPM_P2
2022/07/23 00:01:18;;;;;;;4.22;1.92;;;;;;;14.83;93.75;101948.97;10279826;28;20046;-73
2022/07/23 00:06:18;;;;;;;3.72;2.05;;;;;;;14.79;93.76;101941.41;10297598;28;20030;-71
2022/07/23 00:11:19;;;;;;;5.30;2.25;;;;;;;14.70;96.19;101908.00;10298203;28;20034;-72
2022/07/23 00:16:19;;;;;;;3.97;2.33;;;;;;;14.65;96.31;101905.88;10297769;28;20046;-70
2022/07/23 00:21:20;;;;;;;4.90;2.10;;;;;;;14.56;96.78;101919.88;10296911;28;20042;-71
2022/07/23 00:26:20;;;;;;;1.85;1.48;;;;;;;14.52;95.31;101918.59;10280836;28;20041;-70
2022/07/23 00:31:20;;;;;;;3.67;2.00;;;;;;;14.48;95.25;101912.63;10299233;28;20121;-71
2022/07/23 00:36:21;;;;;;;2.75;2.20;;;;;;;14.43;96.89;101905.06;10298724;28;20026;-72
2022/07/23 00:41:21;;;;;;;3.05;2.47;;;;;;;14.48;97.10;101909.91;10295602;28;20054;-71
2022/07/23 00:46:22;;;;;;;2.83;2.63;;;;;;;14.51;96.59;101904.09;10294719;28;20102;-71
2022/07/23 00:51:22;;;;;;;7.95;3.35;;;;;;;14.52;96.19;101903.06;10278905;28;20125;-71
2022/07/23 00:56:23;;;;;;;2.97;2.38;;;;;;;14.55;96.70;101913.59;10295777;28;20034;-72
2022/07/23 01:01:24;;;;;;;3.85;3.53;;;;;;;14.51;96.68;101890.47;10279222;28;20034;-71
2022/07/23 01:06:24;;;;;;;5.65;3.72;;;;;;;14.49;97.33;101899.88;10295021;28;20035;-71
2022/07/23 01:11:24;;;;;;;2.92;2.72;;;;;;;14.47;97.27;101894.63;10276655;28;20038;-71
2022/07/23 01:16:25;;;;;;;11.18;3.75;;;;;;;14.44;97.79;101905.91;10277030;28;20120;-71
2022/07/23 01:21:25;;;;;;;6.30;3.70;;;;;;;14.36;96.87;101904.19;10294229;28;20042;-72
2022/07/23 01:26:26;;;;;;;3.67;3.30;;;;;;;14.28;96.00;101895.31;10294572;28;20093;-72
2022/07/23 01:31:26;;;;;;;3.28;2.95;;;;;;;14.16;96.45;101895.84;10277724;28;20042;-71
2022/07/23 01:36:27;;;;;;;2.88;2.67;;;;;;;14.05;96.57;101880.03;10294021;28;20045;-71
2022/07/23 01:41:27;;;;;;;3.35;3.05;;;;;;;14.00;96.76;101896.13;10293875;28;20073;-72
2022/07/23 01:46:27;;;;;;;3.95;3.30;;;;;;;13.92;96.83;101909.88;10294970;28;20066;-72
2022/07/23 01:51:28;;;;;;;3.80;3.40;;;;;;;13.81;96.46;101896.78;10284867;28;20093;-72
2022/07/23 01:56:28;;;;;;;3.60;3.30;;;;;;;13.72;96.71;101891.47;10284543;28;20045;-71
2022/07/23 02:01:28;;;;;;;3.22;3.03;;;;;;;13.70;97.22;101898.16;10300973;28;20462;-71
2022/07/23 02:06:29;;;;;;;11.52;3.42;;;;;;;13.67;97.27;101888.47;10301294;28;20093;-71
2022/07/23 02:11:29;;;;;;;15.05;3.70;;;;;;;13.64;96.99;101888.88;10284015;28;20030;-70
2022/07/23 02:16:30;;;;;;;4.22;3.13;;;;;;;13.63;97.79;101884.47;10284380;28;20039;-71
2022/07/23 02:21:30;;;;;;;4.15;3.75;;;;;;;13.58;97.58;101883.34;10300288;28;20066;-71
2022/07/23 02:26:34;;;;;;;6.65;3.80;;;;;;;13.52;97.31;101895.84;10300018;28;20027;-71
2022/07/23 02:31:34;;;;;;;4.68;3.35;;;;;;;13.47;96.91;101893.72;10283743;28;20041;-71
2022/07/23 02:36:35;;;;;;;8.50;4.28;;;;;;;13.41;97.34;101888.22;10283438;28;20113;-72
2022/07/23 02:41:35;;;;;;;5.53;4.22;;;;;;;13.39;97.07;101895.72;10299997;28;20051;-70
2022/07/23 02:46:35;;;;;;;8.63;5.38;;;;;;;13.43;98.22;101905.16;10298817;28;20055;-71
2022/07/23 02:51:36;;;;;;;4.15;3.80;;;;;;;13.49;98.71;101902.50;10299794;28;20430;-71
2022/07/23 02:56:36;;;;;;;4.47;4.10;;;;;;;13.52;99.09;101895.84;10299454;28;20049;-71
2022/07/23 03:01:37;;;;;;;4.22;3.83;;;;;;;13.49;100.00;101898.97;10283225;28;20074;-72
2022/07/23 03:06:37;;;;;;;8.23;4.97;;;;;;;13.42;99.42;101901.59;10298592;28;20066;-71
2022/07/23 03:11:37;;;;;;;9.15;4.15;;;;;;;13.33;98.71;101904.63;10282862;28;20601;-71
2022/07/23 03:16:38;;;;;;;9.00;5.50;;;;;;;13.29;98.55;101908.78;10287475;28;20031;-72
2022/07/23 03:21:40;;;;;;;7.03;5.75;;;;;;;13.25;99.01;101898.28;10282913;28;20047;-71
2022/07/23 03:26:40;;;;;;;5.47;4.93;;;;;;;13.19;98.69;101901.72;10298401;28;20069;-71
2022/07/23 03:31:41;;;;;;;8.43;5.53;;;;;;;13.14;98.42;101912.31;10298201;28;20077;-71
2022/07/23 03:36:41;;;;;;;7.95;4.85;;;;;;;13.08;98.06;101915.81;10298038;28;20034;-72
2022/07/23 03:41:41;;;;;;;6.55;5.95;;;;;;;13.04;98.05;101922.66;10297912;28;20371;-71
2022/07/23 03:46:42;;;;;;;4.75;4.35;;;;;;;13.03;98.44;101920.97;10281640;28;20051;-72
2022/07/23 03:51:42;;;;;;;8.35;5.10;;;;;;;13.05;98.39;101927.06;10296880;28;20043;-71
2022/07/23 03:56:43;;;;;;;8.50;5.53;;;;;;;13.12;98.54;101925.28;10297409;28;20031;-71
2022/07/23 04:01:43;;;;;;;13.88;5.45;;;;;;;13.16;98.85;101928.47;10297758;28;20041;-71
2022/07/23 04:06:43;;;;;;;6.03;5.40;;;;;;;13.25;98.97;101938.25;10296800;28;20034;-71
2022/07/23 04:11:44;;;;;;;10.90;4.43;;;;;;;13.31;98.66;101939.38;10278701;28;20117;-73
2022/07/23 04:16:44;;;;;;;5.70;4.72;;;;;;;13.32;98.04;101932.88;10296545;28;20109;-72
2022/07/23 04:21:45;;;;;;;8.60;5.35;;;;;;;13.37;98.57;101936.72;10279264;28;20038;-72
2022/07/23 04:26:45;;;;;;;8.07;5.22;;;;;;;13.48;99.54;101927.22;10296497;28;20037;-71
2022/07/23 04:31:45;;;;;;;11.25;5.13;;;;;;;13.55;99.54;101917.25;10294598;28;20039;-71
2022/07/23 04:36:46;;;;;;;6.28;4.20;;;;;;;13.60;99.38;101922.97;10295154;28;20113;-72
2022/07/23 04:41:46;;;;;;;9.07;5.28;;;;;;;13.61;99.40;101921.06;10295352;28;20462;-72
2022/07/23 04:46:47;;;;;;;9.13;5.45;;;;;;;13.63;98.86;101930.75;10278276;28;20393;-71
2022/07/23 04:51:47;;;;;;;6.80;4.28;;;;;;;13.73;98.87;101939.44;10295216;28;20035;-72
2022/07/23 04:56:48;;;;;;;9.25;4.55;;;;;;;13.82;99.56;101937.44;10277769;28;20045;-71
2022/07/23 05:01:48;;;;;;;7.53;3.83;;;;;;;14.23;100.00;101935.91;10295038;28;20073;-71
2022/07/23 05:06:48;;;;;;;4.72;3.72;;;;;;;15.15;99.69;101934.88;10295234;28;20471;-70
2022/07/23 05:11:49;;;;;;;6.47;3.83;;;;;;;15.89;99.69;101926.78;10296133;28;20045;-72
2022/07/23 05:16:49;;;;;;;6.65;3.60;;;;;;;16.32;100.00;101936.47;10293744;28;20038;-71
2022/07/23 05:21:49;;;;;;;3.40;3.20;;;;;;;16.88;99.33;101930.53;10293472;28;20378;-69
2022/07/23 05:26:50;;;;;;;3.25;2.90;;;;;;;17.47;99.35;101934.13;10293985;28;20093;-71
2022/07/23 05:31:50;;;;;;;7.07;3.25;;;;;;;18.07;98.93;101931.88;10277283;28;20041;-71
2022/07/23 05:36:51;;;;;;;2.83;2.63;;;;;;;18.60;97.72;101939.66;10276280;28;20038;-72
2022/07/23 05:41:51;;;;;;;3.00;2.67;;;;;;;19.09;97.59;101943.41;10294053;28;20055;-71
2022/07/23 05:46:52;;;;;;;3.25;2.95;;;;;;;19.05;97.47;101942.19;10294726;28;20166;-72
2022/07/23 05:51:52;;;;;;;2.15;1.95;;;;;;;19.17;96.83;101945.00;10276529;28;20031;-71
2022/07/23 05:56:52;;;;;;;2.60;2.38;;;;;;;19.39;95.92;101953.59;10276736;28;20042;-72
2022/07/23 06:01:53;;;;;;;5.78;2.90;;;;;;;19.95;95.35;101946.94;10293361;28;20038;-71
2022/07/23 06:06:53;;;;;;;15.02;2.28;;;;;;;20.40;95.23;101940.94;10293279;28;20037;-71
2022/07/23 06:11:53;;;;;;;6.43;3.03;;;;;;;20.63;97.43;101951.16;10291825;28;20046;-71
2022/07/23 06:16:54;;;;;;;4.40;3.42;;;;;;;20.91;98.07;101944.91;10293071;28;20043;-72
2022/07/23 06:21:54;;;;;;;3.17;2.45;;;;;;;21.11;99.11;101936.25;10275719;28;20039;-72
2022/07/23 06:26:55;;;;;;;10.63;2.75;;;;;;;21.39;98.42;101934.66;10292588;28;20031;-66
2022/07/23 06:31:55;;;;;;;5.35;2.50;;;;;;;22.02;97.73;101937.25;10293842;28;20359;-65
2022/07/23 06:36:55;;;;;;;2.85;2.65;;;;;;;22.49;97.87;101948.00;10300255;28;20126;-66
2022/07/23 06:41:56;;;;;;;3.92;3.58;;;;;;;22.60;97.80;101940.69;10282673;28;20035;-66
2022/07/23 06:46:56;;;;;;;4.30;3.15;;;;;;;22.57;98.99;101932.94;10300704;28;20054;-67
2022/07/23 06:51:57;;;;;;;8.75;3.25;;;;;;;22.79;95.77;101934.91;10299775;28;20078;-67
2022/07/23 06:56:57;;;;;;;2.90;2.08;;;;;;;23.27;97.47;101945.25;10300615;28;20387;-66
2022/07/23 07:01:58;;;;;;;2.47;2.38;;;;;;;23.37;97.53;101950.91;10299972;28;20091;-66
2022/07/23 07:06:58;;;;;;;5.30;2.58;;;;;;;22.69;95.45;101961.28;10298162;28;20509;-67
2022/07/23 07:11:58;;;;;;;11.93;2.42;;;;;;;21.88;94.55;101966.19;10298297;28;20074;-69
2022/07/23 07:16:59;;;;;;;2.88;2.67;;;;;;;22.26;95.12;101967.47;10281945;28;20458;-66
2022/07/23 07:21:59;;;;;;;2.00;1.90;;;;;;;23.65;93.71;101963.66;10297214;28;20129;-70
2022/07/23 07:27:00;;;;;;;2.83;2.63;;;;;;;24.29;95.23;101964.88;10298180;28;20042;-69
2022/07/23 07:32:00;;;;;;;8.52;2.17;;;;;;;24.89;89.64;101974.78;10298175;28;20038;-70
2022/07/23 07:37:00;;;;;;;9.13;2.17;;;;;;;25.18;88.63;101972.47;10265125;28;20390;-69
2022/07/23 07:42:01;;;;;;;2.10;2.00;;;;;;;25.35;83.31;101975.03;10298280;28;20268;-72
2022/07/23 07:47:01;;;;;;;1.53;1.40;;;;;;;25.08;85.97;101977.94;10295638;28;20047;-72
2022/07/23 07:52:01;;;;;;;2.03;1.83;;;;;;;24.77;82.78;101990.75;10296760;28;20284;-72
2022/07/23 07:57:02;;;;;;;1.23;1.23;;;;;;;24.26;85.19;101982.84;10296850;28;20386;-71
2022/07/23 08:02:02;;;;;;;6.88;2.40;;;;;;;25.39;81.81;101983.63;10278987;28;20066;-71
2022/07/23 08:07:03;;;;;;;1.98;1.73;;;;;;;26.03;82.34;101991.63;10297092;28;20041;-70
2022/07/23 08:12:03;;;;;;;1.95;1.30;;;;;;;26.77;80.20;101989.41;10296553;28;20035;-71
2022/07/23 08:17:04;;;;;;;6.45;1.50;;;;;;;27.17;77.01;101979.38;10297056;28;20049;-71
2022/07/23 08:22:04;;;;;;;1.48;1.48;;;;;;;27.50;78.00;101998.13;10297278;28;20463;-71
2022/07/23 08:27:05;;;;;;;4.57;1.88;;;;;;;28.02;72.77;101987.59;10296357;28;20093;-70
2022/07/23 08:32:05;;;;;;;1.52;1.42;;;;;;;27.55;75.36;101986.97;10295016;28;20039;-70
2022/07/23 08:37:05;;;;;;;2.97;1.55;;;;;;;25.90;71.13;101992.97;10295367;28;20042;-71
2022/07/23 08:42:06;;;;;;;2.88;1.70;;;;;;;25.49;75.36;101997.53;10296034;28;20043;-70
2022/07/23 08:47:06;;;;;;;1.92;1.83;;;;;;;25.07;77.91;101990.09;10277071;28;20054;-71
2022/07/23 08:52:07;;;;;;;1.73;1.63;;;;;;;24.86;74.84;102004.97;10293855;28;20043;-72
2022/07/23 08:57:07;;;;;;;2.05;1.85;;;;;;;25.79;75.11;102012.66;10277886;28;20089;-71
2022/07/23 09:02:07;;;;;;;4.63;2.20;;;;;;;26.44;72.14;102011.91;10294128;28;20108;-70
2022/07/23 09:07:08;;;;;;;3.00;2.38;;;;;;;27.49;67.57;102007.59;10294056;28;20030;-70
2022/07/23 09:12:10;;;;;;;2.40;1.45;;;;;;;27.67;66.66;102008.91;10278002;28;20117;-71
2022/07/23 09:17:15;;;;;;;5.65;2.65;;;;;;;27.56;64.39;102004.50;10276936;28;20062;-71
2022/07/23 09:22:16;;;;;;;3.40;2.88;;;;;;;28.11;65.01;102001.72;10277073;28;20030;-71
2022/07/23 09:27:17;;;;;;;2.15;2.05;;;;;;;28.31;62.63;102000.75;10276410;28;20038;-69
2022/07/23 09:32:17;;;;;;;7.90;2.05;;;;;;;29.05;63.30;102009.84;10293997;28;20047;-68
2022/07/23 09:37:18;;;;;;;2.10;1.80;;;;;;;29.16;55.06;101994.66;10277286;28;20039;-68
2022/07/23 09:42:23;;;;;;;4.38;2.17;;;;;;;29.04;60.43;102002.63;10276495;28;20050;-69
2022/07/23 09:47:25;;;;;;;2.42;2.28;;;;;;;29.38;58.25;102002.47;10295145;28;20474;-69
2022/07/23 09:52:29;;;;;;;4.85;1.73;;;;;;;29.18;57.37;102001.59;10275537;28;20093;-69
2022/07/23 09:57:29;;;;;;;2.55;2.25;;;;;;;28.32;61.72;102013.53;10293391;28;20117;-67
2022/07/23 10:02:31;;;;;;;6.25;2.03;;;;;;;28.39;64.90;102006.50;10275429;28;20534;-67
2022/07/23 10:07:33;;;;;;;4.63;1.52;;;;;;;28.27;62.25;102012.47;10277227;28;20038;-68
2022/07/23 10:17:37;;;;;;;1.75;1.40;;;;;;;29.30;62.45;102003.97;10283848;28;20038;-66
2022/07/23 10:22:40;;;;;;;1.73;1.45;;;;;;;28.41;62.10;102003.47;10301318;28;20109;-67
2022/07/23 10:28:04;;;;;;;4.55;2.10;;;;;;;28.71;62.87;102002.34;10283837;28;20035;-67
2022/07/23 10:33:29;;;;;;;3.22;1.73;;;;;;;28.89;62.85;101996.03;10300653;28;20031;-67
2022/07/23 10:38:53;;;;;;;1.67;1.58;;;;;;;29.97;56.90;101992.78;10283343;28;20049;-66
2022/07/23 10:44:31;;;;;;;3.55;2.08;;;;;;;29.82;54.34;101985.44;10257517;28;20493;-66
2022/07/23 10:49:33;;;;;;;2.28;1.95;;;;;;;30.19;54.45;101988.53;10252140;28;20046;-66
2022/07/23 10:54:33;;;;;;;2.50;1.92;;;;;;;30.57;52.92;101987.34;10298616;28;20102;-65
2022/07/23 10:59:58;;;;;;;1.47;1.47;;;;;;;31.42;56.93;101989.94;10283026;28;20102;-65
2022/07/23 11:05:00;;;;;;;2.58;1.58;;;;;;;31.67;54.89;101985.75;10298842;28;20316;-66
2022/07/23 11:10:01;;;;;;;1.27;1.27;;;;;;;31.44;49.90;101990.47;10298829;28;20150;-65
2022/07/23 11:15:14;;;;;;;1.58;1.52;;;;;;;31.71;49.35;101987.59;10298663;28;20049;-66
2022/07/23 11:20:20;;;;;;;2.22;2.13;;;;;;;32.03;49.24;101980.16;10299344;28;20043;-67
2022/07/23 11:25:29;;;;;;;2.63;2.20;;;;;;;32.31;48.54;101969.66;10282604;28;20430;-67
2022/07/23 11:30:29;;;;;;;3.05;1.70;;;;;;;32.13;46.47;101965.06;10297468;28;20110;-66
2022/07/23 11:35:31;;;;;;;4.65;2.28;;;;;;;32.45;48.75;101975.22;10297973;28;20121;-67
2022/07/23 11:40:32;;;;;;;1.90;1.50;;;;;;;32.80;49.85;101965.03;10297970;28;20178;-68
2022/07/23 11:45:34;;;;;;;1.85;1.75;;;;;;;32.53;49.37;101962.41;10296290;28;20047;-68
2022/07/23 11:50:34;;;;;;;2.13;1.92;;;;;;;32.78;49.03;101949.66;10296227;28;20117;-69
2022/07/23 11:55:34;;;;;;;1.85;1.75;;;;;;;32.91;46.89;101943.13;10297697;28;20410;-68
2022/07/23 12:00:35;;;;;;;1.60;1.27;;;;;;;33.11;46.05;101942.53;10297307;28;20039;-68
2022/07/23 12:05:36;;;;;;;2.05;1.95;;;;;;;32.40;44.71;101955.72;10279889;28;20066;-68
2022/07/23 12:10:41;;;;;;;1.80;1.70;;;;;;;31.96;43.88;101946.97;10295643;28;20062;-68
2022/07/23 12:15:47;;;;;;;4.20;2.20;;;;;;;31.44;48.16;101956.88;10296311;28;20038;-67
2022/07/23 12:20:52;;;;;;;2.08;1.98;;;;;;;32.21;46.92;101938.28;10297011;28;20039;-68
2022/07/23 12:25:52;;;;;;;2.27;2.07;;;;;;;32.18;41.79;101946.16;10260841;28;20046;-66
2022/07/23 12:30:53;;;;;;;2.97;2.75;;;;;;;32.12;44.23;101943.81;10178881;29;20047;-68
2022/07/23 12:35:56;;;;;;;3.38;2.30;;;;;;;32.83;42.28;101952.31;10215468;29;20024;-68
2022/07/23 12:40:57;;;;;;;2.90;2.65;;;;;;;32.84;46.59;101935.19;10215761;29;20042;-68
2022/07/23 12:46:18;;;;;;;3.80;2.47;;;;;;;31.89;49.52;101938.19;10183707;29;20380;-67
2022/07/23 12:51:30;;;;;;;4.25;3.45;;;;;;;30.30;46.10;101946.16;10199247;29;20067;-70
2022/07/23 12:56:32;;;;;;;2.80;2.60;;;;;;;28.90;53.04;101938.31;10201187;29;20031;-69
2022/07/23 13:01:43;;;;;;;2.75;2.10;;;;;;;29.54;50.66;101944.50;10201925;29;20129;-70
2022/07/23 13:06:50;;;;;;;3.22;1.92;;;;;;;29.45;52.97;101938.75;10199302;29;20035;-70
2022/07/23 13:11:52;;;;;;;2.65;2.45;;;;;;;28.83;55.52;101927.53;10184266;29;20047;-69
2022/07/23 13:16:53;;;;;;;2.15;2.03;;;;;;;29.83;52.17;101936.84;10197782;29;20032;-72
2022/07/23 13:21:53;;;;;;;3.30;2.85;;;;;;;30.14;52.66;101930.75;10151550;29;20052;-71
2022/07/23 13:26:53;;;;;;;8.13;2.13;;;;;;;31.17;51.89;101943.69;10197202;28;20148;-70
2022/07/23 13:31:54;;;;;;;2.15;1.98;;;;;;;31.44;50.43;101931.69;10215459;29;20040;-71
2022/07/23 13:36:54;;;;;;;3.97;2.87;;;;;;;31.34;49.55;101923.50;10196454;29;20067;-71
2022/07/23 13:41:55;;;;;;;9.93;3.53;;;;;;;31.69;49.36;101914.28;10214394;29;20302;-71
2022/07/23 13:46:55;;;;;;;1.95;1.85;;;;;;;32.07;49.88;101919.56;10181010;29;20051;-71
2022/07/23 13:51:57;;;;;;;4.00;2.63;;;;;;;31.91;50.48;101924.72;10213122;29;20440;-71
2022/07/23 13:56:57;;;;;;;4.80;2.83;;;;;;;31.61;50.92;101917.81;10214761;29;20050;-71
2022/07/23 14:01:57;;;;;;;7.40;2.47;;;;;;;30.98;51.75;101927.00;10196714;29;20036;-72
2022/07/23 14:06:58;;;;;;;2.13;1.85;;;;;;;30.45;52.67;101914.31;10196436;29;20387;-72
2022/07/23 14:11:58;;;;;;;5.55;2.67;;;;;;;30.59;52.79;101926.34;10214640;29;20071;-72
2022/07/23 14:16:58;;;;;;;2.80;2.53;;;;;;;30.88;53.13;101916.03;10214022;29;20039;-71
2022/07/23 14:21:59;;;;;;;1.73;1.63;;;;;;;30.79;51.38;101919.59;10213895;29;20285;-71
2022/07/23 14:27:01;;;;;;;3.10;2.33;;;;;;;31.46;51.67;101924.63;10212635;29;20614;-70
2022/07/23 14:32:02;;;;;;;2.63;2.33;;;;;;;31.20;51.01;101929.91;10195431;29;20043;-71
2022/07/23 14:37:02;;;;;;;2.83;2.28;;;;;;;31.21;51.66;101925.16;10213714;29;20501;-71
2022/07/23 14:42:03;;;;;;;3.85;3.22;;;;;;;30.63;47.71;101914.53;10212764;29;20039;-71
2022/07/23 14:47:04;;;;;;;2.10;1.85;;;;;;;30.46;49.45;101915.16;10213568;29;20048;-71
2022/07/23 14:52:04;;;;;;;2.38;2.22;;;;;;;30.88;49.90;101911.28;10212856;29;20070;-71
2022/07/23 14:57:07;;;;;;;4.22;2.95;;;;;;;30.31;52.52;101902.28;10203077;29;20071;-71
2022/07/23 15:02:08;;;;;;;2.65;2.38;;;;;;;29.63;53.04;101904.47;10203239;29;20090;-71
2022/07/23 15:07:08;;;;;;;17.73;2.60;;;;;;;29.23;51.38;101913.38;10201452;29;20574;-71
2022/07/23 15:12:08;;;;;;;4.22;3.03;;;;;;;29.15;52.06;101900.94;10219516;29;20051;-72
2022/07/23 15:17:09;;;;;;;2.83;2.58;;;;;;;29.02;48.07;101904.47;10218410;29;20444;-71
2022/07/23 15:22:09;;;;;;;2.20;2.10;;;;;;;29.02;50.17;101896.94;10187508;29;20034;-71
2022/07/23 15:27:10;;;;;;;6.85;2.10;;;;;;;29.22;50.11;101890.25;10201725;29;20032;-72
2022/07/23 15:32:13;;;;;;;2.78;2.58;;;;;;;29.39;49.95;101898.97;10202642;29;20143;-71
2022/07/23 15:37:13;;;;;;;19.50;2.92;;;;;;;29.18;49.08;101892.00;10218194;29;20039;-70
2022/07/23 15:42:14;;;;;;;4.07;2.23;;;;;;;29.07;49.85;101896.03;10218098;29;20028;-71
2022/07/23 15:47:17;;;;;;;1.83;1.73;;;;;;;28.58;49.95;101888.78;10200007;29;20298;-71
2022/07/23 15:52:17;;;;;;;1.70;1.67;;;;;;;28.63;50.46;101891.53;10216990;29;20040;-71
2022/07/23 15:57:17;;;;;;;2.20;2.10;;;;;;;28.65;45.79;101883.69;10217775;29;20035;-71
2022/07/23 16:02:18;;;;;;;2.50;2.22;;;;;;;27.89;45.39;101874.94;10185912;29;20040;-70
2022/07/23 16:07:19;;;;;;;2.80;2.25;;;;;;;27.60;46.28;101872.06;10199885;29;20058;-71
2022/07/23 16:12:19;;;;;;;6.25;2.42;;;;;;;27.17;48.15;101880.09;10199974;29;20102;-72
2022/07/23 16:17:20;;;;;;;2.90;2.70;;;;;;;27.19;48.57;101880.66;10216643;29;20071;-71
2022/07/23 16:22:20;;;;;;;5.85;3.35;;;;;;;27.51;48.80;101866.25;10216735;29;20099;-70
2022/07/23 16:27:20;;;;;;;5.17;4.30;;;;;;;27.31;47.94;101871.94;10216641;29;20031;-71
2022/07/23 16:32:21;;;;;;;3.63;3.17;;;;;;;26.85;49.16;101869.34;10215699;29;20393;-71
2022/07/23 16:37:21;;;;;;;8.63;5.03;;;;;;;26.47;49.33;101868.06;10216616;29;20510;-71
2022/07/23 16:42:21;;;;;;;6.33;5.57;;;;;;;26.13;49.77;101868.66;10215627;29;20484;-71
2022/07/23 16:47:22;;;;;;;6.45;5.85;;;;;;;25.82;48.64;101871.44;10216363;29;20372;-71
2022/07/23 16:52:22;;;;;;;6.00;5.35;;;;;;;25.56;49.26;101859.47;10199070;29;20039;-71
2022/07/23 16:57:23;;;;;;;6.70;4.90;;;;;;;25.43;49.51;101871.91;10215017;29;20091;-70
2022/07/23 17:02:23;;;;;;;6.50;5.65;;;;;;;25.26;49.85;101863.81;10198297;29;20364;-70
2022/07/23 17:07:24;;;;;;;14.55;5.47;;;;;;;24.94;50.62;101875.03;10214374;29;20039;-72
2022/07/23 17:12:24;;;;;;;5.25;4.75;;;;;;;24.80;50.64;101873.88;10215596;29;20492;-71
2022/07/23 17:17:24;;;;;;;10.90;5.88;;;;;;;24.75;51.01;101877.44;10214102;29;20042;-71
2022/07/23 17:22:25;;;;;;;8.55;6.30;;;;;;;24.73;51.06;101868.56;10198803;29;20119;-71
2022/07/23 17:27:25;;;;;;;9.95;6.32;;;;;;;24.60;51.28;101866.25;10197262;29;20440;-70
2022/07/23 17:32:26;;;;;;;5.85;5.25;;;;;;;24.53;51.65;101868.44;10181167;29;20097;-72
2022/07/23 17:37:26;;;;;;;14.60;8.02;;;;;;;24.47;51.87;101867.56;10214821;29;20035;-71
2022/07/23 17:42:26;;;;;;;8.38;6.95;;;;;;;24.48;51.96;101876.75;10197843;29;20043;-70
2022/07/23 17:47:27;;;;;;;8.38;6.63;;;;;;;24.38;52.23;101874.72;10216357;29;20107;-71
2022/07/23 17:52:27;;;;;;;11.10;8.27;;;;;;;24.25;52.59;101856.63;10216211;29;20463;-72
2022/07/23 17:57:27;;;;;;;14.15;9.70;;;;;;;24.15;52.80;101851.00;10214811;29;20123;-72
2022/07/23 18:02:28;;;;;;;12.45;8.20;;;;;;;23.98;52.93;101855.84;10215424;29;20035;-71
2022/07/23 18:07:28;;;;;;;13.18;8.68;;;;;;;23.81;53.03;101861.53;10196619;29;20050;-71
2022/07/23 18:12:29;;;;;;;8.07;7.28;;;;;;;23.64;53.29;101847.78;10197421;29;20046;-71
2022/07/23 18:17:30;;;;;;;14.82;8.80;;;;;;;23.59;53.48;101851.34;10213739;29;20044;-71
2022/07/23 18:22:30;;;;;;;13.45;8.40;;;;;;;23.60;53.95;101854.94;10213634;29;20399;-71
2022/07/23 18:27:31;;;;;;;17.73;8.20;;;;;;;23.56;53.76;101868.44;10197539;29;20039;-71
2022/07/23 18:32:31;;;;;;;9.88;7.97;;;;;;;23.48;53.68;101862.53;10204005;29;20115;-71
2022/07/23 18:37:32;;;;;;;8.23;7.13;;;;;;;23.36;53.99;101855.25;10203706;29;20039;-70
2022/07/23 18:42:32;;;;;;;14.40;9.05;;;;;;;23.16;54.77;101866.06;10220047;29;20062;-71
2022/07/23 18:47:33;;;;;;;10.50;8.10;;;;;;;23.04;55.02;101854.31;10220178;29;20063;-70
2022/07/23 18:52:33;;;;;;;7.72;6.95;;;;;;;22.88;55.04;101856.88;10220058;29;20036;-70
2022/07/23 18:57:34;;;;;;;12.95;8.48;;;;;;;22.77;55.47;101862.50;10220025;29;20035;-70
2022/07/23 19:02:34;;;;;;;12.43;9.15;;;;;;;22.70;55.47;101862.69;10219814;29;20047;-71
2022/07/23 19:07:35;;;;;;;10.13;9.13;;;;;;;22.64;55.42;101870.06;10187018;29;20063;-71
2022/07/23 19:12:35;;;;;;;11.93;9.77;;;;;;;22.51;55.77;101860.22;10202520;29;20083;-71
2022/07/23 19:17:36;;;;;;;16.15;9.48;;;;;;;22.44;56.14;101878.06;10202781;29;20035;-70
2022/07/23 19:22:37;;;;;;;15.98;10.45;;;;;;;22.35;56.39;101874.91;10203323;29;20516;-70
2022/07/23 19:27:37;;;;;;;14.65;10.55;;;;;;;22.27;56.34;101876.16;10202657;29;20106;-70
2022/07/23 19:32:38;;;;;;;10.50;8.32;;;;;;;22.16;56.63;101871.56;10219386;29;20036;-71
2022/07/23 19:37:38;;;;;;;9.27;8.38;;;;;;;22.10;56.78;101879.97;10201760;29;20036;-71
2022/07/23 19:42:39;;;;;;;14.57;8.70;;;;;;;21.98;56.75;101889.16;10217251;29;20042;-71
2022/07/23 19:47:43;;;;;;;12.13;7.90;;;;;;;21.90;56.82;101886.81;10200547;29;20066;-71
2022/07/23 19:52:43;;;;;;;10.27;8.57;;;;;;;21.78;57.10;101897.91;10216716;29;20028;-71
2022/07/23 19:57:44;;;;;;;9.43;7.50;;;;;;;21.66;57.48;101896.31;10217696;29;20067;-70
2022/07/23 20:02:44;;;;;;;13.77;7.45;;;;;;;21.56;57.57;101897.78;10199691;29;20122;-70
2022/07/23 20:07:45;;;;;;;10.57;9.57;;;;;;;21.49;57.77;101897.09;10200924;29;20086;-70
2022/07/23 20:12:45;;;;;;;13.32;7.53;;;;;;;21.37;57.98;101893.56;10201482;29;20078;-70
2022/07/23 20:17:46;;;;;;;9.20;8.30;;;;;;;21.27;58.02;101893.34;10202292;29;20115;-71
2022/07/23 20:22:46;;;;;;;9.25;8.25;;;;;;;21.13;58.46;101893.63;10184880;29;20035;-70
2022/07/23 20:27:46;;;;;;;17.75;7.88;;;;;;;21.00;58.42;101890.31;10200577;29;20040;-71
2022/07/23 20:32:47;;;;;;;9.90;8.15;;;;;;;20.93;58.45;101903.34;10216268;29;20059;-70
2022/07/23 20:37:47;;;;;;;10.90;8.32;;;;;;;20.82;58.60;101891.28;10216062;29;20040;-71
2022/07/23 20:42:48;;;;;;;10.50;7.80;;;;;;;20.70;58.78;101877.53;10198734;29;20392;-70
2022/07/23 20:47:48;;;;;;;8.30;7.45;;;;;;;20.67;58.80;101889.84;10217685;29;20052;-70
2022/07/23 20:52:49;;;;;;;9.77;7.93;;;;;;;20.60;59.10;101886.41;10214745;29;20043;-70
2022/07/23 20:57:49;;;;;;;15.25;7.63;;;;;;;20.57;59.87;101881.38;10182267;29;20043;-70
2022/07/23 21:02:49;;;;;;;18.00;9.30;;;;;;;20.59;60.40;101883.91;10215216;29;20075;-70
2022/07/23 21:07:50;;;;;;;8.70;7.93;;;;;;;20.55;60.25;101885.44;10183437;29;20032;-70
2022/07/23 21:12:50;;;;;;;9.38;8.27;;;;;;;20.45;60.42;101880.50;10197880;29;20039;-69
2022/07/23 21:17:51;;;;;;;13.40;10.18;;;;;;;20.37;60.76;101876.22;10214187;29;20400;-69
2022/07/23 21:22:51;;;;;;;13.30;8.75;;;;;;;20.38;60.76;101893.56;10214254;29;20070;-68
2022/07/23 21:27:51;;;;;;;11.75;9.10;;;;;;;20.29;61.43;101886.72;10214613;29;20036;-70
2022/07/23 21:32:52;;;;;;;11.10;9.98;;;;;;;20.17;61.14;101879.31;10214521;29;20391;-68
2022/07/23 21:37:52;;;;;;;13.30;9.20;;;;;;;20.15;61.49;101892.47;10214420;29;20075;-70
2022/07/23 21:42:52;;;;;;;16.50;10.57;;;;;;;20.11;62.15;101879.44;10197164;29;20044;-69
2022/07/23 21:47:53;;;;;;;17.55;9.57;;;;;;;20.05;62.65;101881.22;10214528;29;20048;-67
2022/07/23 21:52:53;;;;;;;17.10;9.98;;;;;;;19.95;62.49;101878.22;10214754;29;20047;-69
2022/07/23 21:57:54;;;;;;;16.35;10.77;;;;;;;19.87;62.40;101873.06;10182334;29;20039;-70
2022/07/23 22:02:54;;;;;;;17.33;10.95;;;;;;;19.79;63.07;101881.66;10215637;29;20035;-67
2022/07/23 22:07:55;;;;;;;11.88;10.70;;;;;;;19.83;63.82;101891.94;10209843;29;20031;-70
2022/07/23 22:12:55;;;;;;;14.95;10.75;;;;;;;19.82;64.84;101897.69;10226178;29;20036;-69
2022/07/23 22:17:56;;;;;;;20.83;13.52;;;;;;;19.78;65.02;101894.53;10228330;29;20035;-71
2022/07/23 22:22:56;;;;;;;16.98;13.25;;;;;;;19.74;66.78;101896.91;10228080;29;20102;-71
2022/07/23 22:27:56;;;;;;;22.63;15.55;;;;;;;19.70;66.61;101887.47;10227223;29;20110;-71
2022/07/23 22:32:57;;;;;;;24.33;14.13;;;;;;;19.61;68.60;101888.84;10227855;29;20043;-70
2022/07/23 22:37:57;;;;;;;21.73;16.15;;;;;;;19.59;71.64;101881.91;10207873;29;20067;-70
2022/07/23 22:42:58;;;;;;;18.80;13.98;;;;;;;19.61;70.05;101877.84;10226267;29;20047;-72
2022/07/23 22:47:58;;;;;;;20.02;14.95;;;;;;;19.53;68.90;101867.22;10212389;29;20075;-71
2022/07/23 22:52:59;;;;;;;15.50;12.32;;;;;;;19.46;69.19;101877.44;10229847;29;20119;-71
2022/07/23 22:57:59;;;;;;;19.85;14.73;;;;;;;19.37;70.43;101874.19;10230072;29;20047;-71
2022/07/23 23:03:00;;;;;;;20.38;12.52;;;;;;;19.26;68.97;101866.72;10230026;29;20051;-69